sensor_id;sensor_type;location;lat;lon;timestamp;P1;durP1;ratioP1;P2;durP2;ratioP2
52940;SDS011;62001;53.366;6.636;2022-07-29T00:00:08;5.78;;;1.58;;
52940;SDS011;62001;53.366;6.636;2022-07-29T00:02:35;4.20;;;1.50;;
52940;SDS011;62001;53.366;6.636;2022-07-29T00:05:02;4.57;;;1.58;;
52940;SDS011;62001;53.366;6.636;2022-07-29T00:07:29;1.98;;;1.65;;
52940;SDS011;62001;53.366;6.636;2022-07-29T00:09:54;4.47;;;1.80;;
52940;SDS011;62001;53.366;6.636;2022-07-29T00:12:21;3.03;;;1.70;;
52940;SDS011;62001;53.366;6.636;2022-07-29T00:14:47;4.30;;;1.73;;
52940;SDS011;62001;53.366;6.636;2022-07-29T00:17:13;7.03;;;1.90;;
52940;SDS011;62001;53.366;6.636;2022-07-29T00:19:39;4.55;;;1.90;;
52940;SDS011;62001;53.366;6.636;2022-07-29T00:22:05;3.78;;;1.70;;
52940;SDS011;62001;53.366;6.636;2022-07-29T00:24:31;8.43;;;1.80;;
52940;SDS011;62001;53.366;6.636;2022-07-29T00:26:56;6.00;;;1.77;;
52940;SDS011;62001;53.366;6.636;2022-07-29T00:29:22;4.65;;;1.92;;
52940;SDS011;62001;53.366;6.636;2022-07-29T00:31:48;3.75;;;1.75;;
52940;SDS011;62001;53.366;6.636;2022-07-29T00:34:14;7.18;;;2.17;;
52940;SDS011;62001;53.366;6.636;2022-07-29T00:36:58;4.65;;;1.73;;
52940;SDS011;62001;53.366;6.636;2022-07-29T00:39:24;5.70;;;2.00;;
52940;SDS011;62001;53.366;6.636;2022-07-29T00:41:50;7.55;;;1.85;;
52940;SDS011;62001;53.366;6.636;2022-07-29T00:44:16;7.85;;;2.13;;
52940;SDS011;62001;53.366;6.636;2022-07-29T00:46:42;3.05;;;1.75;;
52940;SDS011;62001;53.366;6.636;2022-07-29T00:49:08;4.72;;;2.15;;
52940;SDS011;62001;53.366;6.636;2022-07-29T00:51:34;4.97;;;2.25;;
52940;SDS011;62001;53.366;6.636;2022-07-29T00:54:01;3.20;;;1.83;;
52940;SDS011;62001;53.366;6.636;2022-07-29T00:56:31;6.03;;;1.83;;
52940;SDS011;62001;53.366;6.636;2022-07-29T00:58:58;6.82;;;1.92;;
52940;SDS011;62001;53.366;6.636;2022-07-29T01:01:25;5.13;;;1.80;;
52940;SDS011;62001;53.366;6.636;2022-07-29T01:03:51;4.28;;;1.73;;
52940;SDS011;62001;53.366;6.636;2022-07-29T01:06:17;4.60;;;1.80;;
52940;SDS011;62001;53.366;6.636;2022-07-29T01:08:46;4.22;;;1.98;;
52940;SDS011;62001;53.366;6.636;2022-07-29T01:11:14;3.05;;;1.60;;
52940;SDS011;62001;53.366;6.636;2022-07-29T01:13:42;3.45;;;1.70;;
52940;SDS011;62001;53.366;6.636;2022-07-29T01:16:20;5.38;;;1.80;;
52940;SDS011;62001;53.366;6.636;2022-07-29T01:18:51;4.47;;;1.88;;
52940;SDS011;62001;53.366;6.636;2022-07-29T01:24:04;4.82;;;1.60;;
52940;SDS011;62001;53.366;6.636;2022-07-29T01:29:57;6.18;;;1.60;;
52940;SDS011;62001;53.366;6.636;2022-07-29T01:32:26;4.18;;;1.55;;
52940;SDS011;62001;53.366;6.636;2022-07-29T01:35:00;5.13;;;1.40;;
52940;SDS011;62001;53.366;6.636;2022-07-29T01:37:38;4.07;;;1.75;;
52940;SDS011;62001;53.366;6.636;2022-07-29T01:40:11;4.43;;;1.70;;
52940;SDS011;62001;53.366;6.636;2022-07-29T01:42:50;6.35;;;1.52;;
52940;SDS011;62001;53.366;6.636;2022-07-29T01:45:37;4.47;;;1.60;;
52940;SDS011;62001;53.366;6.636;2022-07-29T01:48:13;4.55;;;1.63;;
52940;SDS011;62001;53.366;6.636;2022-07-29T01:50:53;6.20;;;2.00;;
52940;SDS011;62001;53.366;6.636;2022-07-29T01:53:37;3.83;;;1.80;;
52940;SDS011;62001;53.366;6.636;2022-07-29T01:56:09;9.88;;;2.30;;
52940;SDS011;62001;53.366;6.636;2022-07-29T01:58:36;7.43;;;2.05;;
52940;SDS011;62001;53.366;6.636;2022-07-29T02:01:05;4.47;;;1.50;;
52940;SDS011;62001;53.366;6.636;2022-07-29T02:03:34;6.03;;;1.90;;
52940;SDS011;62001;53.366;6.636;2022-07-29T02:06:02;4.32;;;1.40;;
52940;SDS011;62001;53.366;6.636;2022-07-29T02:08:30;5.72;;;1.60;;
52940;SDS011;62001;53.366;6.636;2022-07-29T02:10:58;4.82;;;1.63;;
52940;SDS011;62001;53.366;6.636;2022-07-29T02:13:25;4.63;;;1.67;;
52940;SDS011;62001;53.366;6.636;2022-07-29T02:15:54;3.40;;;1.50;;
52940;SDS011;62001;53.366;6.636;2022-07-29T02:18:22;5.32;;;1.65;;
52940;SDS011;62001;53.366;6.636;2022-07-29T02:20:52;3.95;;;1.60;;
52940;SDS011;62001;53.366;6.636;2022-07-29T02:23:22;3.08;;;1.40;;
52940;SDS011;62001;53.366;6.636;2022-07-29T02:25:49;4.70;;;1.65;;
52940;SDS011;62001;53.366;6.636;2022-07-29T02:28:17;5.97;;;1.90;;
52940;SDS011;62001;53.366;6.636;2022-07-29T02:30:45;4.30;;;1.75;;
52940;SDS011;62001;53.366;6.636;2022-07-29T02:33:13;5.40;;;2.03;;
52940;SDS011;62001;53.366;6.636;2022-07-29T02:35:41;3.40;;;1.83;;
52940;SDS011;62001;53.366;6.636;2022-07-29T02:38:12;5.97;;;1.80;;
52940;SDS011;62001;53.366;6.636;2022-07-29T02:40:58;6.18;;;1.65;;
52940;SDS011;62001;53.366;6.636;2022-07-29T02:43:26;4.25;;;1.60;;
52940;SDS011;62001;53.366;6.636;2022-07-29T02:45:55;6.55;;;1.58;;
52940;SDS011;62001;53.366;6.636;2022-07-29T02:48:26;6.35;;;1.70;;
52940;SDS011;62001;53.366;6.636;2022-07-29T02:50:59;2.97;;;1.33;;
52940;SDS011;62001;53.366;6.636;2022-07-29T02:53:31;4.25;;;1.45;;
52940;SDS011;62001;53.366;6.636;2022-07-29T02:56:01;3.22;;;1.60;;
52940;SDS011;62001;53.366;6.636;2022-07-29T02:58:40;5.97;;;1.63;;
52940;SDS011;62001;53.366;6.636;2022-07-29T03:01:09;4.32;;;1.63;;
52940;SDS011;62001;53.366;6.636;2022-07-29T03:03:39;4.45;;;1.55;;
52940;SDS011;62001;53.366;6.636;2022-07-29T03:06:10;3.90;;;1.75;;
52940;SDS011;62001;53.366;6.636;2022-07-29T03:08:38;8.27;;;2.90;;
52940;SDS011;62001;53.366;6.636;2022-07-29T03:11:05;3.17;;;1.60;;
52940;SDS011;62001;53.366;6.636;2022-07-29T03:13:34;5.82;;;1.95;;
52940;SDS011;62001;53.366;6.636;2022-07-29T03:16:00;6.72;;;2.13;;
52940;SDS011;62001;53.366;6.636;2022-07-29T03:18:27;4.50;;;1.65;;
52940;SDS011;62001;53.366;6.636;2022-07-29T03:20:53;10.80;;;2.00;;
52940;SDS011;62001;53.366;6.636;2022-07-29T03:23:22;6.05;;;1.80;;
52940;SDS011;62001;53.366;6.636;2022-07-29T03:25:51;7.15;;;1.80;;
52940;SDS011;62001;53.366;6.636;2022-07-29T03:28:17;6.35;;;1.95;;
52940;SDS011;62001;53.366;6.636;2022-07-29T03:30:43;5.70;;;1.90;;
52940;SDS011;62001;53.366;6.636;2022-07-29T03:33:09;4.30;;;1.75;;
52940;SDS011;62001;53.366;6.636;2022-07-29T03:35:35;6.25;;;1.85;;
52940;SDS011;62001;53.366;6.636;2022-07-29T03:38:01;4.70;;;2.10;;
52940;SDS011;62001;53.366;6.636;2022-07-29T03:41:12;3.95;;;2.00;;
52940;SDS011;62001;53.366;6.636;2022-07-29T03:43:15;6.20;;;1.70;;
52940;SDS011;62001;53.366;6.636;2022-07-29T03:45:44;8.57;;;2.10;;
52940;SDS011;62001;53.366;6.636;2022-07-29T03:48:12;4.20;;;1.95;;
52940;SDS011;62001;53.366;6.636;2022-07-29T03:50:40;3.92;;;1.92;;
52940;SDS011;62001;53.366;6.636;2022-07-29T03:53:06;5.30;;;1.88;;
52940;SDS011;62001;53.366;6.636;2022-07-29T03:55:41;4.85;;;2.00;;
52940;SDS011;62001;53.366;6.636;2022-07-29T03:58:10;6.22;;;1.98;;
52940;SDS011;62001;53.366;6.636;2022-07-29T04:00:38;8.15;;;1.90;;
52940;SDS011;62001;53.366;6.636;2022-07-29T04:03:07;6.25;;;2.35;;
52940;SDS011;62001;53.366;6.636;2022-07-29T04:05:34;6.68;;;1.90;;
52940;SDS011;62001;53.366;6.636;2022-07-29T04:08:00;5.57;;;1.92;;
52940;SDS011;62001;53.366;6.636;2022-07-29T04:10:25;6.47;;;1.98;;
52940;SDS011;62001;53.366;6.636;2022-07-29T04:12:51;6.55;;;1.98;;
52940;SDS011;62001;53.366;6.636;2022-07-29T04:15:18;4.53;;;1.90;;
52940;SDS011;62001;53.366;6.636;2022-07-29T04:17:44;3.55;;;1.65;;
52940;SDS011;62001;53.366;6.636;2022-07-29T04:20:10;6.75;;;1.80;;
52940;SDS011;62001;53.366;6.636;2022-07-29T04:22:38;6.82;;;1.92;;
52940;SDS011;62001;53.366;6.636;2022-07-29T04:25:05;8.45;;;1.88;;
52940;SDS011;62001;53.366;6.636;2022-07-29T04:27:31;6.80;;;1.65;;
52940;SDS011;62001;53.366;6.636;2022-07-29T04:29:57;8.90;;;1.85;;
52940;SDS011;62001;53.366;6.636;2022-07-29T04:32:23;5.32;;;1.70;;
52940;SDS011;62001;53.366;6.636;2022-07-29T04:34:49;4.88;;;1.60;;
52940;SDS011;62001;53.366;6.636;2022-07-29T04:37:16;6.75;;;2.05;;
52940;SDS011;62001;53.366;6.636;2022-07-29T04:39:41;8.70;;;2.28;;
52940;SDS011;62001;53.366;6.636;2022-07-29T04:42:07;4.00;;;1.70;;
52940;SDS011;62001;53.366;6.636;2022-07-29T04:44:33;3.80;;;1.60;;
52940;SDS011;62001;53.366;6.636;2022-07-29T04:46:59;3.90;;;1.80;;
52940;SDS011;62001;53.366;6.636;2022-07-29T04:49:25;4.03;;;1.60;;
52940;SDS011;62001;53.366;6.636;2022-07-29T04:51:51;6.10;;;1.70;;
52940;SDS011;62001;53.366;6.636;2022-07-29T04:54:17;2.35;;;1.23;;
52940;SDS011;62001;53.366;6.636;2022-07-29T04:56:43;5.38;;;1.90;;
52940;SDS011;62001;53.366;6.636;2022-07-29T04:59:09;4.60;;;1.58;;
52940;SDS011;62001;53.366;6.636;2022-07-29T05:01:35;5.80;;;1.65;;
52940;SDS011;62001;53.366;6.636;2022-07-29T05:04:00;5.30;;;1.80;;
52940;SDS011;62001;53.366;6.636;2022-07-29T05:06:26;2.17;;;1.50;;
52940;SDS011;62001;53.366;6.636;2022-07-29T05:08:52;3.40;;;1.80;;
52940;SDS011;62001;53.366;6.636;2022-07-29T05:11:18;8.05;;;2.08;;
52940;SDS011;62001;53.366;6.636;2022-07-29T05:13:43;5.20;;;1.65;;
52940;SDS011;62001;53.366;6.636;2022-07-29T05:16:10;4.68;;;1.70;;
52940;SDS011;62001;53.366;6.636;2022-07-29T05:18:35;5.95;;;1.52;;
52940;SDS011;62001;53.366;6.636;2022-07-29T05:21:01;7.18;;;1.77;;
52940;SDS011;62001;53.366;6.636;2022-07-29T05:23:27;6.35;;;1.80;;
52940;SDS011;62001;53.366;6.636;2022-07-29T05:25:53;4.53;;;1.90;;
52940;SDS011;62001;53.366;6.636;2022-07-29T05:28:19;4.63;;;1.55;;
52940;SDS011;62001;53.366;6.636;2022-07-29T05:30:45;3.42;;;1.70;;
52940;SDS011;62001;53.366;6.636;2022-07-29T05:33:10;4.97;;;1.73;;
52940;SDS011;62001;53.366;6.636;2022-07-29T05:35:36;5.13;;;1.90;;
52940;SDS011;62001;53.366;6.636;2022-07-29T05:38:02;4.68;;;1.80;;
52940;SDS011;62001;53.366;6.636;2022-07-29T05:40:28;7.00;;;1.90;;
52940;SDS011;62001;53.366;6.636;2022-07-29T05:42:54;6.40;;;1.75;;
52940;SDS011;62001;53.366;6.636;2022-07-29T05:45:20;6.45;;;2.00;;
52940;SDS011;62001;53.366;6.636;2022-07-29T05:47:46;6.82;;;1.80;;
52940;SDS011;62001;53.366;6.636;2022-07-29T05:50:12;5.65;;;1.70;;
52940;SDS011;62001;53.366;6.636;2022-07-29T05:52:38;4.88;;;1.83;;
52940;SDS011;62001;53.366;6.636;2022-07-29T05:55:04;5.70;;;1.90;;
52940;SDS011;62001;53.366;6.636;2022-07-29T05:57:31;6.68;;;1.92;;
52940;SDS011;62001;53.366;6.636;2022-07-29T05:59:57;5.35;;;1.70;;
52940;SDS011;62001;53.366;6.636;2022-07-29T06:02:22;5.13;;;1.60;;
52940;SDS011;62001;53.366;6.636;2022-07-29T06:04:48;3.63;;;1.50;;
52940;SDS011;62001;53.366;6.636;2022-07-29T06:07:14;3.47;;;1.75;;
52940;SDS011;62001;53.366;6.636;2022-07-29T06:09:41;6.20;;;1.88;;
52940;SDS011;62001;53.366;6.636;2022-07-29T06:12:07;4.18;;;1.63;;
52940;SDS011;62001;53.366;6.636;2022-07-29T06:14:34;6.00;;;1.63;;
52940;SDS011;62001;53.366;6.636;2022-07-29T06:17:00;6.00;;;1.65;;
52940;SDS011;62001;53.366;6.636;2022-07-29T06:19:26;6.13;;;1.80;;
52940;SDS011;62001;53.366;6.636;2022-07-29T06:21:52;4.82;;;1.63;;
52940;SDS011;62001;53.366;6.636;2022-07-29T06:24:18;5.60;;;2.00;;
52940;SDS011;62001;53.366;6.636;2022-07-29T06:26:44;5.85;;;1.65;;
52940;SDS011;62001;53.366;6.636;2022-07-29T06:29:10;6.65;;;1.70;;
52940;SDS011;62001;53.366;6.636;2022-07-29T06:31:36;4.53;;;1.40;;
52940;SDS011;62001;53.366;6.636;2022-07-29T06:34:03;5.20;;;1.70;;
52940;SDS011;62001;53.366;6.636;2022-07-29T06:36:29;5.55;;;1.48;;
52940;SDS011;62001;53.366;6.636;2022-07-29T06:38:55;7.88;;;1.40;;
52940;SDS011;62001;53.366;6.636;2022-07-29T06:41:21;2.60;;;1.40;;
52940;SDS011;62001;53.366;6.636;2022-07-29T06:43:48;5.53;;;1.90;;
52940;SDS011;62001;53.366;6.636;2022-07-29T06:46:17;3.22;;;1.75;;
52940;SDS011;62001;53.366;6.636;2022-07-29T06:48:43;7.07;;;1.65;;
52940;SDS011;62001;53.366;6.636;2022-07-29T06:51:10;9.45;;;1.73;;
52940;SDS011;62001;53.366;6.636;2022-07-29T06:53:37;3.92;;;1.73;;
52940;SDS011;62001;53.366;6.636;2022-07-29T06:56:06;4.88;;;1.52;;
52940;SDS011;62001;53.366;6.636;2022-07-29T06:58:37;12.55;;;1.88;;
52940;SDS011;62001;53.366;6.636;2022-07-29T07:01:04;5.32;;;1.85;;
52940;SDS011;62001;53.366;6.636;2022-07-29T07:03:31;6.18;;;1.88;;
52940;SDS011;62001;53.366;6.636;2022-07-29T07:05:57;2.92;;;1.60;;
52940;SDS011;62001;53.366;6.636;2022-07-29T07:08:23;4.90;;;2.05;;
52940;SDS011;62001;53.366;6.636;2022-07-29T07:10:52;6.35;;;1.65;;
52940;SDS011;62001;53.366;6.636;2022-07-29T07:13:18;7.97;;;1.70;;
52940;SDS011;62001;53.366;6.636;2022-07-29T07:15:44;4.53;;;1.88;;
52940;SDS011;62001;53.366;6.636;2022-07-29T07:18:12;3.20;;;1.85;;
52940;SDS011;62001;53.366;6.636;2022-07-29T07:20:39;5.25;;;1.88;;
52940;SDS011;62001;53.366;6.636;2022-07-29T07:23:05;4.63;;;1.67;;
52940;SDS011;62001;53.366;6.636;2022-07-29T07:25:31;5.95;;;1.90;;
52940;SDS011;62001;53.366;6.636;2022-07-29T07:27:57;5.40;;;2.03;;
52940;SDS011;62001;53.366;6.636;2022-07-29T07:30:23;8.05;;;2.13;;
52940;SDS011;62001;53.366;6.636;2022-07-29T07:32:49;7.82;;;1.88;;
52940;SDS011;62001;53.366;6.636;2022-07-29T07:35:14;7.65;;;1.85;;
52940;SDS011;62001;53.366;6.636;2022-07-29T07:37:40;5.40;;;1.70;;
52940;SDS011;62001;53.366;6.636;2022-07-29T07:40:07;5.57;;;1.90;;
52940;SDS011;62001;53.366;6.636;2022-07-29T07:42:34;7.15;;;2.05;;
52940;SDS011;62001;53.366;6.636;2022-07-29T07:45:00;4.28;;;2.03;;
52940;SDS011;62001;53.366;6.636;2022-07-29T07:47:26;7.95;;;1.90;;
52940;SDS011;62001;53.366;6.636;2022-07-29T07:49:52;7.63;;;2.00;;
52940;SDS011;62001;53.366;6.636;2022-07-29T07:52:19;4.80;;;2.10;;
52940;SDS011;62001;53.366;6.636;2022-07-29T07:54:46;6.88;;;1.75;;
52940;SDS011;62001;53.366;6.636;2022-07-29T07:57:12;7.38;;;2.00;;
52940;SDS011;62001;53.366;6.636;2022-07-29T07:59:39;5.63;;;2.13;;
52940;SDS011;62001;53.366;6.636;2022-07-29T08:02:05;7.68;;;2.10;;
52940;SDS011;62001;53.366;6.636;2022-07-29T08:04:32;7.47;;;1.95;;
52940;SDS011;62001;53.366;6.636;2022-07-29T08:09:28;9.10;;;1.98;;
52940;SDS011;62001;53.366;6.636;2022-07-29T08:11:54;4.55;;;2.40;;
52940;SDS011;62001;53.366;6.636;2022-07-29T08:14:20;6.40;;;2.00;;
52940;SDS011;62001;53.366;6.636;2022-07-29T08:16:47;8.73;;;2.08;;
52940;SDS011;62001;53.366;6.636;2022-07-29T08:19:12;5.07;;;1.90;;
52940;SDS011;62001;53.366;6.636;2022-07-29T08:21:38;4.97;;;2.05;;
52940;SDS011;62001;53.366;6.636;2022-07-29T08:24:04;6.47;;;2.22;;
52940;SDS011;62001;53.366;6.636;2022-07-29T08:26:49;3.88;;;1.92;;
52940;SDS011;62001;53.366;6.636;2022-07-29T08:29:15;8.52;;;2.40;;
52940;SDS011;62001;53.366;6.636;2022-07-29T08:31:41;6.43;;;2.40;;
52940;SDS011;62001;53.366;6.636;2022-07-29T08:34:07;10.60;;;1.90;;
52940;SDS011;62001;53.366;6.636;2022-07-29T08:36:33;6.90;;;1.95;;
52940;SDS011;62001;53.366;6.636;2022-07-29T08:38:59;4.03;;;1.75;;
52940;SDS011;62001;53.366;6.636;2022-07-29T08:41:26;5.47;;;2.13;;
52940;SDS011;62001;53.366;6.636;2022-07-29T08:43:52;4.10;;;1.77;;
52940;SDS011;62001;53.366;6.636;2022-07-29T08:46:18;5.80;;;2.03;;
52940;SDS011;62001;53.366;6.636;2022-07-29T08:48:45;6.15;;;2.00;;
52940;SDS011;62001;53.366;6.636;2022-07-29T08:51:15;6.05;;;1.95;;
52940;SDS011;62001;53.366;6.636;2022-07-29T08:53:43;6.43;;;2.20;;
52940;SDS011;62001;53.366;6.636;2022-07-29T08:56:12;6.70;;;2.03;;
52940;SDS011;62001;53.366;6.636;2022-07-29T08:58:40;7.18;;;2.30;;
52940;SDS011;62001;53.366;6.636;2022-07-29T09:01:06;5.22;;;2.00;;
52940;SDS011;62001;53.366;6.636;2022-07-29T09:03:34;7.13;;;2.22;;
52940;SDS011;62001;53.366;6.636;2022-07-29T09:06:02;3.67;;;2.08;;
52940;SDS011;62001;53.366;6.636;2022-07-29T09:08:30;4.28;;;1.80;;
52940;SDS011;62001;53.366;6.636;2022-07-29T09:10:57;5.22;;;2.15;;
52940;SDS011;62001;53.366;6.636;2022-07-29T09:13:25;6.25;;;2.08;;
52940;SDS011;62001;53.366;6.636;2022-07-29T09:15:51;4.70;;;1.60;;
52940;SDS011;62001;53.366;6.636;2022-07-29T09:18:32;5.65;;;2.05;;
52940;SDS011;62001;53.366;6.636;2022-07-29T09:21:02;9.07;;;2.50;;
52940;SDS011;62001;53.366;6.636;2022-07-29T09:26:28;4.78;;;2.13;;
52940;SDS011;62001;53.366;6.636;2022-07-29T09:28:55;7.22;;;2.30;;
52940;SDS011;62001;53.366;6.636;2022-07-29T09:31:26;4.50;;;2.20;;
52940;SDS011;62001;53.366;6.636;2022-07-29T09:33:59;4.18;;;2.10;;
52940;SDS011;62001;53.366;6.636;2022-07-29T09:36:26;7.55;;;2.45;;
52940;SDS011;62001;53.366;6.636;2022-07-29T09:38:58;3.75;;;2.15;;
52940;SDS011;62001;53.366;6.636;2022-07-29T09:41:26;5.90;;;2.35;;
52940;SDS011;62001;53.366;6.636;2022-07-29T09:43:59;6.10;;;2.45;;
52940;SDS011;62001;53.366;6.636;2022-07-29T09:46:25;5.07;;;2.40;;
52940;SDS011;62001;53.366;6.636;2022-07-29T09:49:24;6.30;;;2.45;;
52940;SDS011;62001;53.366;6.636;2022-07-29T09:51:43;5.70;;;2.30;;
52940;SDS011;62001;53.366;6.636;2022-07-29T09:54:22;5.72;;;2.58;;
52940;SDS011;62001;53.366;6.636;2022-07-29T09:56:51;6.95;;;2.50;;
52940;SDS011;62001;53.366;6.636;2022-07-29T09:59:18;6.30;;;2.65;;
52940;SDS011;62001;53.366;6.636;2022-07-29T10:01:51;4.47;;;2.50;;
52940;SDS011;62001;53.366;6.636;2022-07-29T10:04:18;7.50;;;2.40;;
52940;SDS011;62001;53.366;6.636;2022-07-29T10:07:01;10.30;;;3.13;;
52940;SDS011;62001;53.366;6.636;2022-07-29T10:09:30;6.60;;;2.60;;
52940;SDS011;62001;53.366;6.636;2022-07-29T10:12:06;4.50;;;2.67;;
52940;SDS011;62001;53.366;6.636;2022-07-29T10:14:39;8.57;;;2.38;;
52940;SDS011;62001;53.366;6.636;2022-07-29T10:17:06;5.20;;;2.67;;
52940;SDS011;62001;53.366;6.636;2022-07-29T10:19:33;6.68;;;2.92;;
52940;SDS011;62001;53.366;6.636;2022-07-29T10:22:00;9.18;;;3.00;;
52940;SDS011;62001;53.366;6.636;2022-07-29T10:24:28;7.07;;;2.58;;
52940;SDS011;62001;53.366;6.636;2022-07-29T10:26:55;7.20;;;2.58;;
52940;SDS011;62001;53.366;6.636;2022-07-29T10:29:22;5.93;;;2.50;;
52940;SDS011;62001;53.366;6.636;2022-07-29T10:34:33;4.82;;;2.40;;
52940;SDS011;62001;53.366;6.636;2022-07-29T10:37:30;7.78;;;2.40;;
52940;SDS011;62001;53.366;6.636;2022-07-29T10:40:13;5.57;;;2.13;;
52940;SDS011;62001;53.366;6.636;2022-07-29T10:43:09;5.50;;;2.75;;
52940;SDS011;62001;53.366;6.636;2022-07-29T10:45:43;26.73;;;7.32;;
52940;SDS011;62001;53.366;6.636;2022-07-29T10:48:11;3.28;;;2.30;;
52940;SDS011;62001;53.366;6.636;2022-07-29T10:53:49;6.00;;;2.70;;
52940;SDS011;62001;53.366;6.636;2022-07-29T10:56:32;6.57;;;2.92;;
52940;SDS011;62001;53.366;6.636;2022-07-29T11:01:46;5.38;;;2.70;;
52940;SDS011;62001;53.366;6.636;2022-07-29T11:04:13;6.85;;;3.17;;
52940;SDS011;62001;53.366;6.636;2022-07-29T11:09:23;8.95;;;2.90;;
52940;SDS011;62001;53.366;6.636;2022-07-29T11:11:50;10.30;;;3.17;;
52940;SDS011;62001;53.366;6.636;2022-07-29T11:14:16;6.90;;;2.90;;
52940;SDS011;62001;53.366;6.636;2022-07-29T11:17:02;6.63;;;2.85;;
52940;SDS011;62001;53.366;6.636;2022-07-29T11:19:29;5.10;;;2.90;;
52940;SDS011;62001;53.366;6.636;2022-07-29T11:21:55;7.28;;;2.85;;
52940;SDS011;62001;53.366;6.636;2022-07-29T11:24:28;4.10;;;2.58;;
52940;SDS011;62001;53.366;6.636;2022-07-29T11:27:10;9.73;;;3.10;;
52940;SDS011;62001;53.366;6.636;2022-07-29T11:29:55;6.63;;;2.75;;
52940;SDS011;62001;53.366;6.636;2022-07-29T11:32:23;6.70;;;2.92;;
52940;SDS011;62001;53.366;6.636;2022-07-29T11:41:50;6.97;;;3.10;;
52940;SDS011;62001;53.366;6.636;2022-07-29T11:43:52;5.18;;;2.72;;
52940;SDS011;62001;53.366;6.636;2022-07-29T11:49:18;7.95;;;3.30;;
52940;SDS011;62001;53.366;6.636;2022-07-29T11:51:51;5.88;;;2.75;;
52940;SDS011;62001;53.366;6.636;2022-07-29T11:56:48;9.60;;;3.30;;
52940;SDS011;62001;53.366;6.636;2022-07-29T11:59:15;6.90;;;3.20;;
52940;SDS011;62001;53.366;6.636;2022-07-29T12:01:54;7.30;;;3.03;;
52940;SDS011;62001;53.366;6.636;2022-07-29T12:06:49;6.97;;;2.63;;
52940;SDS011;62001;53.366;6.636;2022-07-29T12:09:16;6.95;;;2.78;;
52940;SDS011;62001;53.366;6.636;2022-07-29T12:11:42;5.57;;;2.80;;
52940;SDS011;62001;53.366;6.636;2022-07-29T12:14:09;11.05;;;2.88;;
52940;SDS011;62001;53.366;6.636;2022-07-29T12:16:48;8.82;;;2.70;;
52940;SDS011;62001;53.366;6.636;2022-07-29T12:19:14;8.48;;;2.72;;
52940;SDS011;62001;53.366;6.636;2022-07-29T12:21:46;5.15;;;2.60;;
52940;SDS011;62001;53.366;6.636;2022-07-29T12:24:13;6.68;;;2.65;;
52940;SDS011;62001;53.366;6.636;2022-07-29T12:26:49;6.30;;;2.58;;
52940;SDS011;62001;53.366;6.636;2022-07-29T12:29:19;6.03;;;2.97;;
52940;SDS011;62001;53.366;6.636;2022-07-29T12:31:45;9.15;;;2.60;;
52940;SDS011;62001;53.366;6.636;2022-07-29T12:34:15;8.80;;;2.58;;
52940;SDS011;62001;53.366;6.636;2022-07-29T12:39:08;6.45;;;2.25;;
52940;SDS011;62001;53.366;6.636;2022-07-29T12:41:34;4.60;;;1.98;;
52940;SDS011;62001;53.366;6.636;2022-07-29T12:44:00;7.60;;;2.60;;
52940;SDS011;62001;53.366;6.636;2022-07-29T12:46:26;7.20;;;2.40;;
52940;SDS011;62001;53.366;6.636;2022-07-29T12:48:53;9.38;;;2.60;;
52940;SDS011;62001;53.366;6.636;2022-07-29T12:51:27;7.63;;;2.80;;
52940;SDS011;62001;53.366;6.636;2022-07-29T12:54:08;13.00;;;2.70;;
52940;SDS011;62001;53.366;6.636;2022-07-29T12:56:38;4.63;;;2.60;;
52940;SDS011;62001;53.366;6.636;2022-07-29T12:59:12;7.68;;;2.58;;
52940;SDS011;62001;53.366;6.636;2022-07-29T13:01:38;7.22;;;2.38;;
52940;SDS011;62001;53.366;6.636;2022-07-29T13:04:04;7.05;;;2.28;;
52940;SDS011;62001;53.366;6.636;2022-07-29T13:06:31;7.95;;;2.88;;
52940;SDS011;62001;53.366;6.636;2022-07-29T13:09:02;6.97;;;2.40;;
52940;SDS011;62001;53.366;6.636;2022-07-29T13:11:30;8.50;;;2.50;;
52940;SDS011;62001;53.366;6.636;2022-07-29T13:13:57;5.68;;;2.53;;
52940;SDS011;62001;53.366;6.636;2022-07-29T13:16:23;6.97;;;2.40;;
52940;SDS011;62001;53.366;6.636;2022-07-29T13:18:54;6.15;;;2.60;;
52940;SDS011;62001;53.366;6.636;2022-07-29T13:21:37;5.65;;;2.42;;
52940;SDS011;62001;53.366;6.636;2022-07-29T13:24:05;7.30;;;2.58;;
52940;SDS011;62001;53.366;6.636;2022-07-29T13:26:31;6.38;;;2.50;;
52940;SDS011;62001;53.366;6.636;2022-07-29T13:28:58;6.82;;;2.85;;
52940;SDS011;62001;53.366;6.636;2022-07-29T13:31:24;7.75;;;2.88;;
52940;SDS011;62001;53.366;6.636;2022-07-29T13:33:50;7.57;;;2.20;;
52940;SDS011;62001;53.366;6.636;2022-07-29T13:36:15;6.30;;;2.38;;
52940;SDS011;62001;53.366;6.636;2022-07-29T13:38:41;6.13;;;2.42;;
52940;SDS011;62001;53.366;6.636;2022-07-29T13:41:07;8.18;;;2.35;;
52940;SDS011;62001;53.366;6.636;2022-07-29T13:43:33;5.82;;;2.50;;
52940;SDS011;62001;53.366;6.636;2022-07-29T13:45:59;7.90;;;2.25;;
52940;SDS011;62001;53.366;6.636;2022-07-29T13:48:25;6.63;;;2.90;;
52940;SDS011;62001;53.366;6.636;2022-07-29T13:50:51;6.13;;;2.35;;
52940;SDS011;62001;53.366;6.636;2022-07-29T13:53:17;4.35;;;2.25;;
52940;SDS011;62001;53.366;6.636;2022-07-29T13:55:42;6.43;;;2.40;;
52940;SDS011;62001;53.366;6.636;2022-07-29T13:58:09;11.77;;;2.58;;
52940;SDS011;62001;53.366;6.636;2022-07-29T14:00:34;5.85;;;2.42;;
52940;SDS011;62001;53.366;6.636;2022-07-29T14:03:00;12.98;;;2.30;;
52940;SDS011;62001;53.366;6.636;2022-07-29T14:05:26;8.80;;;2.45;;
52940;SDS011;62001;53.366;6.636;2022-07-29T14:07:52;7.18;;;2.25;;
52940;SDS011;62001;53.366;6.636;2022-07-29T14:10:18;10.23;;;2.65;;
52940;SDS011;62001;53.366;6.636;2022-07-29T14:12:43;4.78;;;2.15;;
52940;SDS011;62001;53.366;6.636;2022-07-29T14:15:09;3.90;;;2.22;;
52940;SDS011;62001;53.366;6.636;2022-07-29T14:17:35;7.43;;;2.05;;
52940;SDS011;62001;53.366;6.636;2022-07-29T14:20:01;7.97;;;2.55;;
52940;SDS011;62001;53.366;6.636;2022-07-29T14:22:26;5.40;;;2.20;;
52940;SDS011;62001;53.366;6.636;2022-07-29T14:24:52;6.35;;;2.20;;
52940;SDS011;62001;53.366;6.636;2022-07-29T14:27:18;8.63;;;2.33;;
52940;SDS011;62001;53.366;6.636;2022-07-29T14:29:44;10.00;;;2.63;;
52940;SDS011;62001;53.366;6.636;2022-07-29T14:32:10;6.57;;;2.40;;
52940;SDS011;62001;53.366;6.636;2022-07-29T14:34:36;9.95;;;2.45;;
52940;SDS011;62001;53.366;6.636;2022-07-29T14:37:03;6.55;;;1.98;;
52940;SDS011;62001;53.366;6.636;2022-07-29T14:39:34;5.85;;;2.03;;
52940;SDS011;62001;53.366;6.636;2022-07-29T14:42:03;4.07;;;1.92;;
52940;SDS011;62001;53.366;6.636;2022-07-29T14:44:29;4.82;;;1.73;;
52940;SDS011;62001;53.366;6.636;2022-07-29T14:46:59;6.85;;;2.00;;
52940;SDS011;62001;53.366;6.636;2022-07-29T14:49:26;7.05;;;1.85;;
52940;SDS011;62001;53.366;6.636;2022-07-29T14:51:52;5.35;;;1.80;;
52940;SDS011;62001;53.366;6.636;2022-07-29T14:54:18;4.60;;;1.77;;
52940;SDS011;62001;53.366;6.636;2022-07-29T14:56:44;3.40;;;1.80;;
52940;SDS011;62001;53.366;6.636;2022-07-29T14:59:10;6.57;;;1.80;;
52940;SDS011;62001;53.366;6.636;2022-07-29T15:01:36;6.93;;;2.00;;
52940;SDS011;62001;53.366;6.636;2022-07-29T15:04:02;7.35;;;2.03;;
52940;SDS011;62001;53.366;6.636;2022-07-29T15:06:28;7.35;;;1.90;;
52940;SDS011;62001;53.366;6.636;2022-07-29T15:08:53;5.85;;;1.88;;
52940;SDS011;62001;53.366;6.636;2022-07-29T15:11:19;7.22;;;1.73;;
52940;SDS011;62001;53.366;6.636;2022-07-29T15:13:45;6.57;;;1.92;;
52940;SDS011;62001;53.366;6.636;2022-07-29T15:16:11;4.88;;;1.80;;
52940;SDS011;62001;53.366;6.636;2022-07-29T15:18:36;5.75;;;2.08;;
52940;SDS011;62001;53.366;6.636;2022-07-29T15:21:03;5.10;;;1.70;;
52940;SDS011;62001;53.366;6.636;2022-07-29T15:23:31;4.47;;;1.80;;
52940;SDS011;62001;53.366;6.636;2022-07-29T15:25:58;5.22;;;1.90;;
52940;SDS011;62001;53.366;6.636;2022-07-29T15:28:24;10.88;;;2.47;;
52940;SDS011;62001;53.366;6.636;2022-07-29T15:30:50;5.18;;;2.17;;
52940;SDS011;62001;53.366;6.636;2022-07-29T15:33:15;5.72;;;2.15;;